createdAt,value
2023-05-14T00:00:03.622Z,4.00
2023-05-14T00:02:53.801Z,3.00
2023-05-14T00:05:20.635Z,4.00
2023-05-14T00:07:47.240Z,3.00
2023-05-14T00:10:14.234Z,2.00
2023-05-14T00:12:40.810Z,2.50
2023-05-14T00:15:08.013Z,2.00
2023-05-14T00:17:34.589Z,3.00
2023-05-14T00:20:01.268Z,4.00
2023-05-14T00:22:27.785Z,3.00
2023-05-14T00:24:54.862Z,2.50
2023-05-14T00:27:21.510Z,2.67
2023-05-14T00:29:48.130Z,3.67
2023-05-14T00:32:14.853Z,3.00
2023-05-14T00:34:41.487Z,3.67
2023-05-14T00:37:08.111Z,4.00
2023-05-14T00:39:35.009Z,2.00
2023-05-14T00:42:01.649Z,3.00
2023-05-14T00:44:28.607Z,1.00
2023-05-14T00:46:55.253Z,2.00
2023-05-14T00:49:22.659Z,2.00
2023-05-14T00:51:49.522Z,4.00
2023-05-14T00:54:16.578Z,3.00
2023-05-14T00:56:46.500Z,2.67
2023-05-14T00:59:13.370Z,3.00
2023-05-14T01:01:40.068Z,1.67
2023-05-14T01:04:07.187Z,3.00
2023-05-14T01:06:44.374Z,2.33
2023-05-14T01:09:50.480Z,3.00
2023-05-14T01:12:34.171Z,2.00
2023-05-14T01:15:05.966Z,2.67
2023-05-14T01:17:33.358Z,2.33
2023-05-14T01:20:00.311Z,2.00
2023-05-14T01:22:27.340Z,3.00
2023-05-14T01:24:53.876Z,2.00
2023-05-14T01:27:43.214Z,3.00
2023-05-14T01:30:27.160Z,3.00
2023-05-14T01:32:55.326Z,2.00
2023-05-14T01:35:27.208Z,2.00
2023-05-14T01:37:58.016Z,2.00
2023-05-14T01:40:25.336Z,3.00
2023-05-14T01:42:52.486Z,2.00
2023-05-14T01:45:22.711Z,2.00
2023-05-14T01:47:50.673Z,2.00
2023-05-14T01:50:17.614Z,2.00
2023-05-14T01:52:44.261Z,2.00
2023-05-14T01:55:11.009Z,2.50
2023-05-14T01:57:37.701Z,2.00
2023-05-14T02:00:05.346Z,2.67
2023-05-14T02:02:40.443Z,2.00
2023-05-14T02:05:08.085Z,3.00
2023-05-14T02:07:34.670Z,2.00
2023-05-14T02:10:01.879Z,0.67
2023-05-14T02:12:28.544Z,3.00
2023-05-14T02:14:55.313Z,2.67
2023-05-14T02:17:23.654Z,3.00
2023-05-14T02:19:50.679Z,2.00
2023-05-14T02:22:17.404Z,2.00
2023-05-14T02:24:44.228Z,2.67
2023-05-14T02:27:12.528Z,2.33
2023-05-14T02:29:39.370Z,2.00
2023-05-14T02:32:06.322Z,2.00
2023-05-14T02:34:33.837Z,2.00
2023-05-14T02:37:00.601Z,3.00
2023-05-14T02:39:27.410Z,2.00
2023-05-14T02:41:54.356Z,1.67
2023-05-14T02:44:20.901Z,2.00
2023-05-14T02:46:47.661Z,2.00
2023-05-14T02:49:14.370Z,2.00
2023-05-14T02:51:40.911Z,2.00
2023-05-14T02:54:07.648Z,2.00
2023-05-14T02:56:34.341Z,2.00
2023-05-14T02:59:01.047Z,2.00
2023-05-14T03:01:28.514Z,2.00
2023-05-14T03:03:55.728Z,2.00
2023-05-14T03:06:22.416Z,1.67
2023-05-14T03:08:49.257Z,1.00
2023-05-14T03:11:15.995Z,2.00
2023-05-14T03:13:42.619Z,2.00
2023-05-14T03:16:09.271Z,2.00
2023-05-14T03:18:36.369Z,2.00
2023-05-14T03:21:03.431Z,2.00
2023-05-14T03:23:31.553Z,2.00
2023-05-14T03:25:58.238Z,1.67
2023-05-14T03:28:25.416Z,2.00
2023-05-14T03:30:52.305Z,1.67
2023-05-14T03:33:19.143Z,2.00
2023-05-14T03:35:45.740Z,2.00
2023-05-14T03:38:12.525Z,2.00
2023-05-14T03:40:39.036Z,2.00
2023-05-14T03:43:05.646Z,3.00
2023-05-14T03:45:32.729Z,2.00
2023-05-14T03:47:59.335Z,1.25
2023-05-14T03:50:26.558Z,1.67
2023-05-14T03:52:54.373Z,2.00
2023-05-14T03:55:21.133Z,2.00
2023-05-14T03:57:48.053Z,2.00
2023-05-14T04:00:15.047Z,1.67
2023-05-14T04:02:44.600Z,2.00
2023-05-14T04:05:11.375Z,2.00
2023-05-14T04:07:38.065Z,1.00
2023-05-14T04:10:05.698Z,2.00
2023-05-14T04:12:34.726Z,2.00
2023-05-14T04:15:01.571Z,2.00
2023-05-14T04:17:28.624Z,2.00
2023-05-14T04:19:56.776Z,2.00
2023-05-14T04:22:24.176Z,1.00
2023-05-14T04:24:51.155Z,1.67
2023-05-14T04:27:20.990Z,2.00
2023-05-14T04:29:48.323Z,2.00
2023-05-14T04:32:15.090Z,2.00
2023-05-14T04:34:41.905Z,2.00
2023-05-14T04:37:08.657Z,2.00
2023-05-14T04:39:35.295Z,2.00
2023-05-14T04:42:01.909Z,1.67
2023-05-14T04:44:28.446Z,2.00
2023-05-14T04:46:55.301Z,2.00
2023-05-14T04:49:21.816Z,2.00
2023-05-14T04:51:48.873Z,1.00
2023-05-14T04:54:15.423Z,2.00
2023-05-14T04:56:42.050Z,1.67
2023-05-14T04:59:08.720Z,2.00
2023-05-14T05:01:35.635Z,1.67
2023-05-14T05:04:02.406Z,1.00
2023-05-14T05:06:29.375Z,2.00
2023-05-14T05:08:56.039Z,2.00
2023-05-14T05:11:22.578Z,1.67
2023-05-14T05:13:49.766Z,1.00
2023-05-14T05:16:16.428Z,1.00
2023-05-14T05:18:44.023Z,2.00
2023-05-14T05:21:10.727Z,2.00
2023-05-14T05:23:37.329Z,2.00
2023-05-14T05:26:04.359Z,1.00
2023-05-14T05:28:31.018Z,2.67
2023-05-14T05:30:57.993Z,1.33
2023-05-14T05:33:25.041Z,1.33
2023-05-14T05:35:51.809Z,2.00
2023-05-14T05:38:18.358Z,1.00
2023-05-14T05:40:44.956Z,2.00
2023-05-14T05:43:13.286Z,2.00
2023-05-14T05:45:40.938Z,2.00
2023-05-14T05:48:07.830Z,2.00
2023-05-14T05:50:34.427Z,1.00
2023-05-14T05:53:01.328Z,2.00
2023-05-14T05:55:28.448Z,1.33
2023-05-14T05:57:55.247Z,2.00
2023-05-14T06:00:22.595Z,2.00
2023-05-14T06:02:49.438Z,2.00
2023-05-14T06:05:16.133Z,1.00
2023-05-14T06:07:42.854Z,2.00
2023-05-14T06:10:09.662Z,1.00
2023-05-14T06:12:36.402Z,2.00
2023-05-14T06:15:03.272Z,2.00
2023-05-14T06:17:30.090Z,1.00
2023-05-14T06:19:56.741Z,2.00
2023-05-14T06:22:23.580Z,1.00
2023-05-14T06:24:50.186Z,2.00
2023-05-14T06:27:16.704Z,1.67
2023-05-14T06:29:43.223Z,1.00
2023-05-14T06:32:09.960Z,1.67
2023-05-14T06:34:36.756Z,2.00
2023-05-14T06:37:03.508Z,1.00
2023-05-14T06:39:30.270Z,1.00
2023-05-14T06:41:57.182Z,2.00
2023-05-14T06:44:23.799Z,1.00
2023-05-14T06:46:50.445Z,2.00
2023-05-14T06:49:17.613Z,1.00
2023-05-14T06:51:44.388Z,1.00
2023-05-14T06:54:11.275Z,1.00
2023-05-14T06:56:37.919Z,1.00
2023-05-14T06:59:04.587Z,2.00
2023-05-14T07:01:31.211Z,1.00
2023-05-14T07:03:57.900Z,2.00
2023-05-14T07:06:24.434Z,2.00
2023-05-14T07:08:51.140Z,1.00
2023-05-14T07:11:17.999Z,2.00
2023-05-14T07:13:44.749Z,2.00
2023-05-14T07:16:11.577Z,1.67
2023-05-14T07:18:38.246Z,2.00
2023-05-14T07:21:06.019Z,1.00
2023-05-14T07:23:35.423Z,1.00
2023-05-14T07:26:02.377Z,2.00
2023-05-14T07:28:28.888Z,2.00
2023-05-14T07:30:55.545Z,2.00
2023-05-14T07:33:22.417Z,2.00
2023-05-14T07:35:48.946Z,1.00
2023-05-14T07:38:15.918Z,1.00
2023-05-14T07:40:42.924Z,1.00
2023-05-14T07:43:09.747Z,1.67
2023-05-14T07:45:37.523Z,2.00
2023-05-14T07:48:04.706Z,0.67
2023-05-14T07:50:31.461Z,1.00
2023-05-14T07:52:58.214Z,1.00
2023-05-14T07:55:25.378Z,2.00
2023-05-14T07:57:52.025Z,2.00
2023-05-14T08:00:19.079Z,1.00
2023-05-14T08:02:45.826Z,1.00
2023-05-14T08:05:13.181Z,1.00
2023-05-14T08:07:39.880Z,1.00
2023-05-14T08:10:07.480Z,2.00
2023-05-14T08:12:34.312Z,1.00
2023-05-14T08:15:01.413Z,1.00
2023-05-14T08:17:28.067Z,1.67
2023-05-14T08:19:54.714Z,1.00
2023-05-14T08:22:21.815Z,2.00
2023-05-14T08:24:48.699Z,1.67
2023-05-14T08:27:16.146Z,1.25
2023-05-14T08:29:42.807Z,1.33
2023-05-14T08:32:19.773Z,1.00
2023-05-14T08:34:49.074Z,1.00
2023-05-14T08:37:15.665Z,1.00
2023-05-14T08:39:43.206Z,1.00
2023-05-14T08:42:11.365Z,1.00
2023-05-14T08:44:49.340Z,1.33
2023-05-14T08:47:17.529Z,1.00
2023-05-14T08:49:46.183Z,1.00
2023-05-14T08:52:12.982Z,1.00
2023-05-14T08:54:39.903Z,1.00
2023-05-14T08:57:08.850Z,1.00
2023-05-14T08:59:35.573Z,1.00
2023-05-14T09:02:02.644Z,1.00
2023-05-14T09:04:29.856Z,1.00
2023-05-14T09:06:56.532Z,1.00
2023-05-14T09:09:23.080Z,1.00
2023-05-14T09:11:53.713Z,1.00
2023-05-14T09:14:21.242Z,1.00
2023-05-14T09:16:49.094Z,1.00
2023-05-14T09:19:18.399Z,1.00
2023-05-14T09:21:45.409Z,1.33
2023-05-14T09:24:22.707Z,1.00
2023-05-14T09:26:53.524Z,1.00
2023-05-14T09:29:20.258Z,1.00
2023-05-14T09:31:47.491Z,1.00
2023-05-14T09:34:26.190Z,1.00
2023-05-14T09:37:00.854Z,1.00
2023-05-14T09:39:27.598Z,0.50
2023-05-14T09:41:55.210Z,1.00
2023-05-14T09:44:22.022Z,1.00
2023-05-14T09:46:48.802Z,1.00
2023-05-14T09:49:15.529Z,1.00
2023-05-14T09:51:42.140Z,1.00
2023-05-14T09:54:09.155Z,1.00
2023-05-14T09:56:36.261Z,1.00
2023-05-14T09:59:03.368Z,1.00
2023-05-14T10:01:30.229Z,1.00
2023-05-14T10:03:57.173Z,1.00
2023-05-14T10:06:35.882Z,1.00
2023-05-14T10:09:05.296Z,1.00
2023-05-14T10:11:33.245Z,1.00
2023-05-14T10:14:04.036Z,1.00
2023-05-14T10:16:33.486Z,1.00
2023-05-14T10:19:05.771Z,1.00
2023-05-14T10:21:33.949Z,1.00
2023-05-14T10:24:00.629Z,1.00
2023-05-14T10:26:27.566Z,0.50
2023-05-14T10:28:55.331Z,0.67
2023-05-14T10:31:53.770Z,1.00
2023-05-14T10:34:37.742Z,1.00
2023-05-14T10:37:05.913Z,0.00
2023-05-14T10:39:51.206Z,1.00
2023-05-14T10:42:18.648Z,2.00
2023-05-14T10:44:56.536Z,1.00
2023-05-14T10:47:23.489Z,1.00
2023-05-14T10:49:52.702Z,1.67
2023-05-14T10:52:19.706Z,1.00
2023-05-14T10:54:53.911Z,1.00
2023-05-14T10:57:21.543Z,1.00
2023-05-14T10:59:55.390Z,1.00
2023-05-14T11:02:29.135Z,0.67
2023-05-14T11:04:57.346Z,1.00
2023-05-14T11:07:35.091Z,1.00
2023-05-14T11:10:15.308Z,1.00
2023-05-14T11:12:43.721Z,1.50
2023-05-14T11:15:11.613Z,1.00
2023-05-14T11:17:40.359Z,1.00
2023-05-14T11:20:07.663Z,1.00
2023-05-14T11:22:34.999Z,2.00
2023-05-14T11:25:01.661Z,1.00
2023-05-14T11:27:28.920Z,1.00
2023-05-14T11:29:56.097Z,1.00
2023-05-14T11:32:22.941Z,1.00
2023-05-14T11:34:50.712Z,1.00
2023-05-14T11:37:17.690Z,1.33
2023-05-14T11:39:51.897Z,2.00
2023-05-14T11:42:18.860Z,1.00
2023-05-14T11:44:49.883Z,1.67
2023-05-14T11:47:17.721Z,2.00
2023-05-14T11:49:44.938Z,1.67
2023-05-14T11:52:15.476Z,2.00
2023-05-14T11:54:42.755Z,2.00
2023-05-14T11:57:11.377Z,1.33
2023-05-14T11:59:38.122Z,2.00
2023-05-14T12:02:09.653Z,1.00
2023-05-14T12:04:36.371Z,3.00
2023-05-14T12:07:08.434Z,1.00
2023-05-14T12:09:50.838Z,2.00
2023-05-14T12:12:21.131Z,1.33
2023-05-14T12:14:48.168Z,2.00
2023-05-14T12:17:18.811Z,1.00
2023-05-14T12:19:47.553Z,1.00
2023-05-14T12:22:16.568Z,1.00
2023-05-14T12:24:43.755Z,1.00
2023-05-14T12:27:11.171Z,1.00
2023-05-14T12:29:40.584Z,1.00
2023-05-14T12:32:08.680Z,1.33
2023-05-14T12:34:37.354Z,3.00
2023-05-14T12:37:05.679Z,1.33
2023-05-14T12:39:32.997Z,2.00
2023-05-14T12:41:59.846Z,2.00
2023-05-14T12:44:26.595Z,1.00
2023-05-14T12:46:53.389Z,1.00
2023-05-14T12:49:20.039Z,1.67
2023-05-14T12:51:46.529Z,1.00
2023-05-14T12:54:15.126Z,1.50
2023-05-14T12:56:42.042Z,1.00
2023-05-14T12:59:08.990Z,2.00
2023-05-14T13:01:37.591Z,2.00
2023-05-14T13:04:04.984Z,1.00
2023-05-14T13:06:32.182Z,1.00
2023-05-14T13:09:01.977Z,1.00
2023-05-14T13:11:31.051Z,2.00
2023-05-14T13:14:00.850Z,1.00
2023-05-14T13:16:27.790Z,1.00
2023-05-14T13:18:54.790Z,2.00
2023-05-14T13:21:21.563Z,1.00
2023-05-14T13:23:48.377Z,2.00
2023-05-14T13:26:15.370Z,1.67
2023-05-14T13:28:42.608Z,1.00
2023-05-14T13:31:10.732Z,1.00
2023-05-14T13:33:40.297Z,1.00
2023-05-14T13:36:07.660Z,2.00
2023-05-14T13:38:34.374Z,2.00
2023-05-14T13:41:04.038Z,1.00
2023-05-14T13:43:31.294Z,1.00
2023-05-14T13:45:58.532Z,1.00
2023-05-14T13:48:25.427Z,2.00
2023-05-14T13:50:52.242Z,1.00
2023-05-14T13:53:22.776Z,2.00
2023-05-14T13:55:49.774Z,1.00
2023-05-14T13:58:16.434Z,2.00
2023-05-14T14:00:43.101Z,1.67
2023-05-14T14:03:09.790Z,1.33
2023-05-14T14:05:36.572Z,2.00
2023-05-14T14:08:17.882Z,1.67
2023-05-14T14:10:50.011Z,2.00
2023-05-14T14:13:16.887Z,2.00
2023-05-14T14:15:43.834Z,1.75
2023-05-14T14:18:11.125Z,2.00
2023-05-14T14:20:37.735Z,1.00
2023-05-14T14:23:04.700Z,1.00
2023-05-14T14:25:31.303Z,2.00
2023-05-14T14:27:58.301Z,2.00
2023-05-14T14:30:25.006Z,1.00
2023-05-14T14:32:51.691Z,1.00
2023-05-14T14:35:18.954Z,1.00
2023-05-14T14:37:48.505Z,1.00
2023-05-14T14:40:16.073Z,2.00
2023-05-14T14:42:43.153Z,1.00
2023-05-14T14:45:10.287Z,1.00
2023-05-14T14:47:37.169Z,2.00
2023-05-14T14:50:05.405Z,1.00
2023-05-14T14:52:32.209Z,2.00
2023-05-14T14:54:59.085Z,2.00
2023-05-14T14:57:26.671Z,1.00
2023-05-14T14:59:53.424Z,1.00
2023-05-14T15:02:20.059Z,1.00
2023-05-14T15:04:46.718Z,1.00
2023-05-14T15:07:15.437Z,2.00
2023-05-14T15:09:42.440Z,1.00
2023-05-14T15:12:10.363Z,1.00
2023-05-14T15:14:36.994Z,1.00
2023-05-14T15:17:03.835Z,1.00
2023-05-14T15:19:32.027Z,1.00
2023-05-14T15:21:58.782Z,1.00
2023-05-14T15:24:25.745Z,1.00
2023-05-14T15:26:53.583Z,1.00
2023-05-14T15:29:20.901Z,1.00
2023-05-14T15:31:47.922Z,1.00
2023-05-14T15:34:14.606Z,1.00
2023-05-14T15:36:41.497Z,1.00
2023-05-14T15:39:09.691Z,1.00
2023-05-14T15:41:37.196Z,1.25
2023-05-14T15:44:04.036Z,1.00
2023-05-14T15:46:31.631Z,1.00
2023-05-14T15:48:58.296Z,1.00
2023-05-14T15:51:25.201Z,0.50
2023-05-14T15:53:53.418Z,0.00
2023-05-14T15:56:21.614Z,1.00
2023-05-14T15:58:48.824Z,1.00
2023-05-14T16:01:15.568Z,1.00
2023-05-14T16:03:42.428Z,1.00
2023-05-14T16:06:09.462Z,0.00
2023-05-14T16:08:36.020Z,0.33
2023-05-14T16:11:02.652Z,0.00
2023-05-14T16:13:29.347Z,0.33
2023-05-14T16:15:56.359Z,1.00
2023-05-14T16:18:24.521Z,1.00
2023-05-14T16:20:51.778Z,1.00
2023-05-14T16:23:18.599Z,1.00
2023-05-14T16:25:45.264Z,1.00
2023-05-14T16:28:12.284Z,1.00
2023-05-14T16:30:38.953Z,1.00
2023-05-14T16:33:05.824Z,1.00
2023-05-14T16:35:32.898Z,1.00
2023-05-14T16:37:59.534Z,0.67
2023-05-14T16:40:26.209Z,0.50
2023-05-14T16:42:53.270Z,0.00
2023-05-14T16:45:20.015Z,0.50
2023-05-14T16:47:46.576Z,1.00
2023-05-14T16:50:13.185Z,1.00
2023-05-14T16:52:39.872Z,0.00
2023-05-14T16:55:06.844Z,1.00
2023-05-14T16:57:33.934Z,1.00
2023-05-14T17:00:00.672Z,1.00
2023-05-14T17:02:27.486Z,1.33
2023-05-14T17:04:54.727Z,1.00
2023-05-14T17:07:21.343Z,1.00
2023-05-14T17:09:48.312Z,0.00
2023-05-14T17:12:14.983Z,0.50
2023-05-14T17:14:41.745Z,0.00
2023-05-14T17:17:08.603Z,0.00
2023-05-14T17:19:35.210Z,0.67
2023-05-14T17:22:05.123Z,0.00
2023-05-14T17:24:32.299Z,0.00
2023-05-14T17:26:58.823Z,1.00
2023-05-14T17:29:25.656Z,1.00
2023-05-14T17:31:52.510Z,0.00
2023-05-14T17:34:19.592Z,1.00
2023-05-14T17:36:46.262Z,0.00
2023-05-14T17:39:12.777Z,1.00
2023-05-14T17:41:41.324Z,1.00
2023-05-14T17:44:08.404Z,1.00
2023-05-14T17:46:35.262Z,1.00
2023-05-14T17:49:01.932Z,0.67
2023-05-14T17:51:28.666Z,0.25
2023-05-14T17:53:55.668Z,1.00
2023-05-14T17:56:22.193Z,1.00
2023-05-14T17:58:48.801Z,1.00
2023-05-14T18:01:15.718Z,0.00
2023-05-14T18:03:42.714Z,1.00
2023-05-14T18:06:09.815Z,1.00
2023-05-14T18:08:36.446Z,1.00
2023-05-14T18:11:03.169Z,1.00
2023-05-14T18:13:29.897Z,1.50
2023-05-14T18:15:56.980Z,1.00
2023-05-14T18:18:23.599Z,0.50
2023-05-14T18:20:51.366Z,1.00
2023-05-14T18:23:18.001Z,1.00
2023-05-14T18:25:44.867Z,0.00
2023-05-14T18:28:11.555Z,0.67
2023-05-14T18:30:38.537Z,1.00
2023-05-14T18:33:05.229Z,1.00
2023-05-14T18:35:31.766Z,1.00
2023-05-14T18:37:58.281Z,1.00
2023-05-14T18:40:25.321Z,1.00
2023-05-14T18:42:51.889Z,1.00
2023-05-14T18:45:18.764Z,1.00
2023-05-14T18:47:45.623Z,1.00
2023-05-14T18:50:12.276Z,1.00
2023-05-14T18:52:38.887Z,1.00
2023-05-14T18:55:05.726Z,0.67
2023-05-14T18:57:32.410Z,1.00
2023-05-14T19:00:02.464Z,1.00
2023-05-14T19:02:29.482Z,1.00
2023-05-14T19:04:56.624Z,1.00
2023-05-14T19:07:23.286Z,1.00
2023-05-14T19:09:50.145Z,1.00
2023-05-14T19:12:16.653Z,1.00
2023-05-14T19:14:43.221Z,1.00
2023-05-14T19:17:10.421Z,0.00
2023-05-14T19:19:38.547Z,1.00
2023-05-14T19:22:06.216Z,0.00
2023-05-14T19:24:32.871Z,0.33
2023-05-14T19:26:59.421Z,1.00
2023-05-14T19:29:26.301Z,1.00
2023-05-14T19:31:53.012Z,1.00
2023-05-14T19:34:19.902Z,1.00
2023-05-14T19:36:46.551Z,1.00
2023-05-14T19:39:13.177Z,1.00
2023-05-14T19:41:40.095Z,0.33
2023-05-14T19:44:06.808Z,1.00
2023-05-14T19:46:33.455Z,1.00
2023-05-14T19:49:00.223Z,0.67
2023-05-14T19:51:27.004Z,0.00
2023-05-14T19:53:53.659Z,0.50
2023-05-14T19:56:20.974Z,1.00
2023-05-14T19:58:47.666Z,1.00
2023-05-14T20:01:14.491Z,1.00
2023-05-14T20:03:41.277Z,1.00
2023-05-14T20:06:07.874Z,1.00
2023-05-14T20:08:35.557Z,0.00
2023-05-14T20:11:02.822Z,1.00
2023-05-14T20:13:31.447Z,0.67
2023-05-14T20:15:58.437Z,1.00
2023-05-14T20:18:25.086Z,1.00
2023-05-14T20:20:51.895Z,1.00
2023-05-14T20:23:19.464Z,1.00
2023-05-14T20:25:46.967Z,1.00
2023-05-14T20:28:14.025Z,1.00
2023-05-14T20:30:40.834Z,1.00
2023-05-14T20:33:07.753Z,1.00
2023-05-14T20:35:34.740Z,1.00
2023-05-14T20:38:03.100Z,0.00
2023-05-14T20:40:30.272Z,1.00
2023-05-14T20:42:58.174Z,1.00
2023-05-14T20:45:25.040Z,1.00
2023-05-14T20:47:52.034Z,0.00
2023-05-14T20:50:19.196Z,0.00
2023-05-14T20:52:46.015Z,1.00
2023-05-14T20:55:12.702Z,1.00
2023-05-14T20:57:40.223Z,1.00
2023-05-14T21:00:09.327Z,1.00
2023-05-14T21:02:36.936Z,1.00
2023-05-14T21:05:04.336Z,0.67
2023-05-14T21:07:31.107Z,0.33
2023-05-14T21:09:57.734Z,1.00
2023-05-14T21:12:24.327Z,1.00
2023-05-14T21:14:50.960Z,0.00
2023-05-14T21:17:17.765Z,1.00
2023-05-14T21:19:44.488Z,1.00
2023-05-14T21:22:11.905Z,1.00
2023-05-14T21:24:38.439Z,0.00
2023-05-14T21:27:05.279Z,1.00
2023-05-14T21:29:31.776Z,0.33
2023-05-14T21:31:58.637Z,1.00
2023-05-14T21:34:25.357Z,0.00
2023-05-14T21:36:52.265Z,1.00
2023-05-14T21:39:19.339Z,1.00
2023-05-14T21:41:46.406Z,1.00
2023-05-14T21:44:12.935Z,1.00
2023-05-14T21:46:40.628Z,1.00
2023-05-14T21:49:07.317Z,1.00
2023-05-14T21:51:34.136Z,1.00
2023-05-14T21:54:00.875Z,1.00
2023-05-14T21:56:27.659Z,1.00
2023-05-14T21:58:55.388Z,0.67
2023-05-14T22:01:22.034Z,2.00
2023-05-14T22:03:49.423Z,0.50
2023-05-14T22:06:16.384Z,1.00
2023-05-14T22:08:42.997Z,1.00
2023-05-14T22:11:09.807Z,1.00
2023-05-14T22:13:40.181Z,1.00
2023-05-14T22:16:12.808Z,1.00
2023-05-14T22:18:40.907Z,1.00
2023-05-14T22:21:07.649Z,1.00
2023-05-14T22:23:34.274Z,1.00
2023-05-14T22:26:01.019Z,1.00
2023-05-14T22:28:27.601Z,1.33
2023-05-14T22:30:55.892Z,1.00
2023-05-14T22:33:22.631Z,1.00
2023-05-14T22:35:49.294Z,0.00
2023-05-14T22:38:16.409Z,0.00
2023-05-14T22:40:43.033Z,1.00
2023-05-14T22:43:09.836Z,1.00
2023-05-14T22:45:36.331Z,1.00
2023-05-14T22:48:03.071Z,1.00
2023-05-14T22:50:29.821Z,2.00
2023-05-14T22:52:56.899Z,2.00
2023-05-14T22:55:23.931Z,1.00
2023-05-14T22:57:50.706Z,1.00
2023-05-14T23:00:17.674Z,1.00
2023-05-14T23:02:44.545Z,1.00
2023-05-14T23:05:11.688Z,1.00
2023-05-14T23:07:38.482Z,1.00
2023-05-14T23:10:05.888Z,1.00
2023-05-14T23:12:32.905Z,1.00
2023-05-14T23:14:59.561Z,2.00
2023-05-14T23:17:26.368Z,2.00
2023-05-14T23:19:53.089Z,0.00
2023-05-14T23:22:19.830Z,1.00
2023-05-14T23:24:46.562Z,1.00
2023-05-14T23:27:13.161Z,0.67
2023-05-14T23:29:39.908Z,1.00
2023-05-14T23:32:07.700Z,1.00
2023-05-14T23:34:34.782Z,1.00
2023-05-14T23:37:01.707Z,1.00
2023-05-14T23:39:28.367Z,1.00
2023-05-14T23:41:55.017Z,1.00
2023-05-14T23:44:21.587Z,1.00
2023-05-14T23:46:48.561Z,1.00
2023-05-14T23:49:15.317Z,1.00
2023-05-14T23:51:41.974Z,1.00
2023-05-14T23:54:08.957Z,0.00
2023-05-14T23:56:35.641Z,1.00
2023-05-14T23:59:02.986Z,0.67
